Terminal Aerodrome Forecast
Issued by NWS

Home | Current Version | Previous Version | Text Only | Print | Product List | Glossary On
Versions: 1 2 3 4 5 6 7 8 9 10 11 12 13 14 15 16 17 18 19 20 21 22 23 24 25 26 27 28 29 30 31 32 33 34 35
710
FTUS41 KOKX 051730
TAFGON
TAF
KGON 051730Z 0518/0618 03015G23KT P6SM OVC020
      TEMPO 0521/0524 -RA BKN015
     FM060000 03012KT P6SM SCT008 OVC015
     FM060400 03010KT P6SM -DZ SCT007 OVC010
     FM060800 03009KT 3SM -RA BR SCT005 OVC008
     FM061200 07013G19KT 1SM -RA BR OVC008=

USA.gov is the U.S. government's official web portal to all federal, state and local government web resources and services.